MOL Modern — V7VS6 — position and weather

sailwx.info

Track history (hours):
 
Tides and Currents Weather Stations Pressure Air Temp Water Temp Dewpoint Dewpoint Depression Visibility Wind Speed Wind Dir Waves Ship Positions

MOL Modern

Last reported at 2016-Apr-08 15:33 UTC. Time now 2016-Apr-29 04:01 UTC.
Position N 31°56' W 080°25'.
Warning: this ship's position is 20 days out of date.

Length 302 m; draft 11.4 m.

Type: Ship (hazmat cat A). MMSI: 538004203.

Date/timePositionNaut miles runAvg speedWind from/ knotsBaromVisibWave heightAir tempDewpointWater temp
2016-Apr-08 15:33N 31°56' W 080°25'1010.5
2016-Apr-08 14:33N 31°56' W 080°38'1111.3
2016-Apr-08 13:34N 32°02' W 080°49'9 9.3
2016-Apr-08 12:34N 32°05' W 080°59'5 5.4
2016-Apr-08 11:34N 32°05' W 081°06'3 3.3
2016-Apr-08 10:33N 32°08' W 081°08'0 0.0
2016-Apr-08 09:33N 32°08' W 081°08'0 0.0
2016-Apr-08 08:33N 32°08' W 081°08'0 0.0
2016-Apr-08 07:33N 32°08' W 081°08'0 0.0
2016-Apr-08 06:33N 32°08' W 081°08'0 0.0
2016-Apr-08 05:33N 32°08' W 081°08'0 0.0
2016-Apr-08 04:33N 32°08' W 081°08'0 0.0
2016-Apr-08 03:33N 32°08' W 081°08'0 0.0
2016-Apr-08 02:33N 32°08' W 081°08'0 0.0
2016-Apr-08 01:33N 32°08' W 081°08'0 0.0
2016-Apr-08 00:33N 32°08' W 081°08'0 0.0
2016-Apr-07 23:33N 32°08' W 081°08'0 0.0
2016-Apr-07 22:33N 32°08' W 081°08'0 0.0
2016-Apr-07 21:33N 32°08' W 081°08'0 0.0
2016-Apr-07 20:33N 32°08' W 081°08'0 0.0
2016-Apr-07 19:33N 32°08' W 081°08'0 0.0
2016-Apr-07 18:33N 32°08' W 081°08'0 0.0
2016-Apr-07 17:33N 32°08' W 081°08'0 0.0
2016-Apr-07 16:33N 32°08' W 081°08'0 0.0
2016-Apr-07 15:33N 32°08' W 081°08'0 0.0
2016-Apr-07 14:33N 32°08' W 081°08'0 0.0
2016-Apr-07 13:33N 32°08' W 081°08'0 0.0
2016-Apr-07 12:33N 32°08' W 081°08'0 0.0
2016-Apr-07 11:24N 32°08' W 081°08'1 1.7
2016-Apr-07 10:33N 32°06' W 081°07'6 6.2
2016-Apr-07 09:33N 32°06' W 080°60'1212.0
2016-Apr-07 08:33N 32°00' W 080°47'1110.8
2016-Apr-07 07:33N 31°56' W 080°36'8 8.4
2016-Apr-07 06:33N 31°58' W 080°26'10 9.8
2016-Apr-07 05:33N 32°00' W 080°15'0 0.5
2016-Apr-07 04:33N 31°60' W 080°15'3 3.2
2016-Apr-07 03:32N 32°01' W 080°11'36110.0
2016-Apr-05 15:19N 36°51' W 075°50'1012.9
2016-Apr-05 14:33N 36°57' W 076°00'1413.5
2016-Apr-05 13:31N 37°00' W 076°17'6 6.3
2016-Apr-05 12:33N 36°54' W 076°20'0 0.0
2016-Apr-05 11:31N 36°54' W 076°20'0 0.0
2016-Apr-05 10:31N 36°54' W 076°20'0 0.0
2016-Apr-05 09:31N 36°54' W 076°20'0 0.0
2016-Apr-05 08:31N 36°54' W 076°20'0 0.0
2016-Apr-05 07:28N 36°54' W 076°20'0 0.0
2016-Apr-05 06:31N 36°54' W 076°20'0 0.0
2016-Apr-05 05:31N 36°54' W 076°20'0 0.0
2016-Apr-05 04:31N 36°54' W 076°20'0 0.0
2016-Apr-05 03:31N 36°54' W 076°20'0 0.0
2016-Apr-05 02:31N 36°54' W 076°20'0 0.0
2016-Apr-05 01:31N 36°54' W 076°20'0 0.0
2016-Apr-05 00:31N 36°54' W 076°20'0 0.0
2016-Apr-04 23:31N 36°54' W 076°20'0 0.0
2016-Apr-04 22:25N 36°54' W 076°20'0 0.2
2016-Apr-04 21:33N 36°55' W 076°20'5 4.9
2016-Apr-04 20:33N 36°59' W 076°19'1312.8
2016-Apr-04 19:33N 36°57' W 076°03'8 8.2
2016-Apr-04 18:33N 36°54' W 075°53'11 9.6
2016-Apr-04 17:27N 36°49' W 075°42'  
2016-Mar-30 03:33N 36°08' W 025°56'1919.6
2016-Mar-30 02:34N 36°07' W 025°32'2019.5
2016-Mar-30 01:33N 36°07' W 025°08'2019.9
2016-Mar-30 00:33N 36°07' W 024°43'2019.7
2016-Mar-29 23:33N 36°07' W 024°18'1919.4
2016-Mar-29 22:33N 36°07' W 023°55'  
Track history (hours):
 
Tides and Currents Weather Stations Pressure Air Temp Water Temp Dewpoint Dewpoint Depression Visibility Wind Speed Wind Dir Waves Ship Positions

MOL Modern

Last reported at 2016-Apr-08 15:33 UTC. Time now 2016-Apr-29 04:01 UTC.
Position N 31°56' W 080°25'.
Warning: this ship's position is 20 days out of date.

Length 302 m; draft 11.4 m.

Type: Ship (hazmat cat A). MMSI: 538004203.

Date/timePositionNaut miles runAvg speedWind from/ knotsBaromVisibWave heightAir tempDewpointWater temp
2016-Apr-08 15:33N 31°56' W 080°25'1010.5
2016-Apr-08 14:33N 31°56' W 080°38'1111.3
2016-Apr-08 13:34N 32°02' W 080°49'9 9.3
2016-Apr-08 12:34N 32°05' W 080°59'5 5.4
2016-Apr-08 11:34N 32°05' W 081°06'3 3.3
2016-Apr-08 10:33N 32°08' W 081°08'0 0.0
2016-Apr-08 09:33N 32°08' W 081°08'0 0.0
2016-Apr-08 08:33N 32°08' W 081°08'0 0.0
2016-Apr-08 07:33N 32°08' W 081°08'0 0.0
2016-Apr-08 06:33N 32°08' W 081°08'0 0.0
2016-Apr-08 05:33N 32°08' W 081°08'0 0.0
2016-Apr-08 04:33N 32°08' W 081°08'0 0.0
2016-Apr-08 03:33N 32°08' W 081°08'0 0.0
2016-Apr-08 02:33N 32°08' W 081°08'0 0.0
2016-Apr-08 01:33N 32°08' W 081°08'0 0.0
2016-Apr-08 00:33N 32°08' W 081°08'0 0.0
2016-Apr-07 23:33N 32°08' W 081°08'0 0.0
2016-Apr-07 22:33N 32°08' W 081°08'0 0.0
2016-Apr-07 21:33N 32°08' W 081°08'0 0.0
2016-Apr-07 20:33N 32°08' W 081°08'0 0.0
2016-Apr-07 19:33N 32°08' W 081°08'0 0.0
2016-Apr-07 18:33N 32°08' W 081°08'0 0.0
2016-Apr-07 17:33N 32°08' W 081°08'0 0.0
2016-Apr-07 16:33N 32°08' W 081°08'0 0.0
2016-Apr-07 15:33N 32°08' W 081°08'0 0.0
2016-Apr-07 14:33N 32°08' W 081°08'0 0.0
2016-Apr-07 13:33N 32°08' W 081°08'0 0.0
2016-Apr-07 12:33N 32°08' W 081°08'0 0.0
2016-Apr-07 11:24N 32°08' W 081°08'1 1.7
2016-Apr-07 10:33N 32°06' W 081°07'6 6.2
2016-Apr-07 09:33N 32°06' W 080°60'1212.0
2016-Apr-07 08:33N 32°00' W 080°47'1110.8
2016-Apr-07 07:33N 31°56' W 080°36'8 8.4
2016-Apr-07 06:33N 31°58' W 080°26'10 9.8
2016-Apr-07 05:33N 32°00' W 080°15'0 0.5
2016-Apr-07 04:33N 31°60' W 080°15'3 3.2
2016-Apr-07 03:32N 32°01' W 080°11'36110.0
2016-Apr-05 15:19N 36°51' W 075°50'1012.9
2016-Apr-05 14:33N 36°57' W 076°00'1413.5
2016-Apr-05 13:31N 37°00' W 076°17'6 6.3
2016-Apr-05 12:33N 36°54' W 076°20'0 0.0
2016-Apr-05 11:31N 36°54' W 076°20'0 0.0
2016-Apr-05 10:31N 36°54' W 076°20'0 0.0
2016-Apr-05 09:31N 36°54' W 076°20'0 0.0
2016-Apr-05 08:31N 36°54' W 076°20'0 0.0
2016-Apr-05 07:28N 36°54' W 076°20'0 0.0
2016-Apr-05 06:31N 36°54' W 076°20'0 0.0
2016-Apr-05 05:31N 36°54' W 076°20'0 0.0
2016-Apr-05 04:31N 36°54' W 076°20'0 0.0
2016-Apr-05 03:31N 36°54' W 076°20'0 0.0
2016-Apr-05 02:31N 36°54' W 076°20'0 0.0
2016-Apr-05 01:31N 36°54' W 076°20'0 0.0
2016-Apr-05 00:31N 36°54' W 076°20'0 0.0
2016-Apr-04 23:31N 36°54' W 076°20'0 0.0
2016-Apr-04 22:25N 36°54' W 076°20'0 0.2
2016-Apr-04 21:33N 36°55' W 076°20'5 4.9
2016-Apr-04 20:33N 36°59' W 076°19'1312.8
2016-Apr-04 19:33N 36°57' W 076°03'8 8.2
2016-Apr-04 18:33N 36°54' W 075°53'11 9.6
2016-Apr-04 17:27N 36°49' W 075°42'  
2016-Mar-30 03:33N 36°08' W 025°56'1919.6
2016-Mar-30 02:34N 36°07' W 025°32'2019.5
2016-Mar-30 01:33N 36°07' W 025°08'2019.9
2016-Mar-30 00:33N 36°07' W 024°43'2019.7
2016-Mar-29 23:33N 36°07' W 024°18'1919.4
2016-Mar-29 22:33N 36°07' W 023°55'  

Dump ship's entire track history